sensor_id;sensor_type;location;lat;lon;timestamp;P1;durP1;ratioP1;P2;durP2;ratioP2
23370;SDS011;11858;51.056;3.712;2023-06-22T00:00:54;17.10;;;16.02;;
23370;SDS011;11858;51.056;3.712;2023-06-22T00:03:21;16.60;;;15.60;;
23370;SDS011;11858;51.056;3.712;2023-06-22T00:05:48;17.10;;;16.00;;
23370;SDS011;11858;51.056;3.712;2023-06-22T00:08:14;16.60;;;15.60;;
23370;SDS011;11858;51.056;3.712;2023-06-22T00:10:40;16.50;;;15.50;;
23370;SDS011;11858;51.056;3.712;2023-06-22T00:13:06;16.63;;;15.63;;
23370;SDS011;11858;51.056;3.712;2023-06-22T00:15:33;16.50;;;15.50;;
23370;SDS011;11858;51.056;3.712;2023-06-22T00:17:59;16.35;;;15.35;;
23370;SDS011;11858;51.056;3.712;2023-06-22T00:20:26;16.08;;;15.07;;
23370;SDS011;11858;51.056;3.712;2023-06-22T00:22:53;16.63;;;15.63;;
23370;SDS011;11858;51.056;3.712;2023-06-22T00:25:19;16.17;;;15.18;;
23370;SDS011;11858;51.056;3.712;2023-06-22T00:27:45;16.23;;;15.23;;
23370;SDS011;11858;51.056;3.712;2023-06-22T00:30:10;16.17;;;15.18;;
23370;SDS011;11858;51.056;3.712;2023-06-22T00:32:36;16.60;;;15.60;;
23370;SDS011;11858;51.056;3.712;2023-06-22T00:35:02;16.13;;;15.13;;
23370;SDS011;11858;51.056;3.712;2023-06-22T00:37:28;16.15;;;15.15;;
23370;SDS011;11858;51.056;3.712;2023-06-22T00:39:55;15.90;;;15.00;;
23370;SDS011;11858;51.056;3.712;2023-06-22T00:42:21;15.98;;;14.98;;
23370;SDS011;11858;51.056;3.712;2023-06-22T00:44:47;15.60;;;14.70;;
23370;SDS011;11858;51.056;3.712;2023-06-22T00:47:13;16.67;;;15.68;;
23370;SDS011;11858;51.056;3.712;2023-06-22T00:49:42;15.80;;;14.90;;
23370;SDS011;11858;51.056;3.712;2023-06-22T00:52:08;15.98;;;14.98;;
23370;SDS011;11858;51.056;3.712;2023-06-22T00:54:38;16.15;;;15.15;;
23370;SDS011;11858;51.056;3.712;2023-06-22T00:57:10;17.00;;;16.00;;
23370;SDS011;11858;51.056;3.712;2023-06-22T00:59:37;16.80;;;15.80;;
23370;SDS011;11858;51.056;3.712;2023-06-22T01:02:04;17.80;;;16.67;;
23370;SDS011;11858;51.056;3.712;2023-06-22T01:04:37;16.55;;;15.55;;
23370;SDS011;11858;51.056;3.712;2023-06-22T01:09:42;16.60;;;15.60;;
23370;SDS011;11858;51.056;3.712;2023-06-22T01:12:16;16.90;;;15.90;;
23370;SDS011;11858;51.056;3.712;2023-06-22T01:14:50;17.05;;;16.05;;
23370;SDS011;11858;51.056;3.712;2023-06-22T01:17:21;16.05;;;15.05;;
23370;SDS011;11858;51.056;3.712;2023-06-22T01:19:50;16.42;;;15.43;;
23370;SDS011;11858;51.056;3.712;2023-06-22T01:22:22;17.70;;;16.60;;
23370;SDS011;11858;51.056;3.712;2023-06-22T01:30:20;16.77;;;15.77;;
23370;SDS011;11858;51.056;3.712;2023-06-22T01:32:47;16.40;;;15.40;;
23370;SDS011;11858;51.056;3.712;2023-06-22T01:35:14;17.30;;;16.20;;
23370;SDS011;11858;51.056;3.712;2023-06-22T01:37:41;17.50;;;16.40;;
23370;SDS011;11858;51.056;3.712;2023-06-22T01:40:07;17.33;;;16.23;;
23370;SDS011;11858;51.056;3.712;2023-06-22T01:42:34;16.77;;;15.77;;
23370;SDS011;11858;51.056;3.712;2023-06-22T01:45:01;17.60;;;16.50;;
23370;SDS011;11858;51.056;3.712;2023-06-22T01:47:27;17.17;;;16.17;;
23370;SDS011;11858;51.056;3.712;2023-06-22T01:49:53;16.70;;;15.70;;
23370;SDS011;11858;51.056;3.712;2023-06-22T01:52:20;16.85;;;15.85;;
23370;SDS011;11858;51.056;3.712;2023-06-22T01:54:46;17.10;;;16.10;;
23370;SDS011;11858;51.056;3.712;2023-06-22T01:57:12;17.27;;;16.27;;
23370;SDS011;11858;51.056;3.712;2023-06-22T02:02:26;18.08;;;16.98;;
23370;SDS011;11858;51.056;3.712;2023-06-22T02:05:08;18.95;;;17.63;;
23370;SDS011;11858;51.056;3.712;2023-06-22T02:07:47;18.35;;;17.15;;
23370;SDS011;11858;51.056;3.712;2023-06-22T02:10:17;17.30;;;16.20;;
23370;SDS011;11858;51.056;3.712;2023-06-22T02:12:47;17.70;;;16.60;;
23370;SDS011;11858;51.056;3.712;2023-06-22T02:15:13;17.45;;;16.35;;
23370;SDS011;11858;51.056;3.712;2023-06-22T02:17:40;17.38;;;16.30;;
23370;SDS011;11858;51.056;3.712;2023-06-22T02:20:12;17.10;;;16.10;;
23370;SDS011;11858;51.056;3.712;2023-06-22T02:22:38;17.40;;;16.30;;
23370;SDS011;11858;51.056;3.712;2023-06-22T02:25:04;18.25;;;17.15;;
23370;SDS011;11858;51.056;3.712;2023-06-22T02:27:29;17.30;;;16.20;;
23370;SDS011;11858;51.056;3.712;2023-06-22T02:29:55;18.05;;;16.95;;
23370;SDS011;11858;51.056;3.712;2023-06-22T02:32:21;17.60;;;16.50;;
23370;SDS011;11858;51.056;3.712;2023-06-22T02:34:47;17.02;;;16.02;;
23370;SDS011;11858;51.056;3.712;2023-06-22T02:37:13;17.40;;;16.30;;
23370;SDS011;11858;51.056;3.712;2023-06-22T02:39:42;17.75;;;16.65;;
23370;SDS011;11858;51.056;3.712;2023-06-22T02:42:07;17.00;;;16.00;;
23370;SDS011;11858;51.056;3.712;2023-06-22T02:44:35;16.73;;;15.73;;
23370;SDS011;11858;51.056;3.712;2023-06-22T02:47:01;16.77;;;15.77;;
23370;SDS011;11858;51.056;3.712;2023-06-22T02:49:27;16.50;;;15.50;;
23370;SDS011;11858;51.056;3.712;2023-06-22T02:51:52;16.38;;;15.38;;
23370;SDS011;11858;51.056;3.712;2023-06-22T02:54:18;16.60;;;15.60;;
23370;SDS011;11858;51.056;3.712;2023-06-22T02:56:44;16.42;;;15.43;;
23370;SDS011;11858;51.056;3.712;2023-06-22T02:59:10;16.77;;;15.77;;
23370;SDS011;11858;51.056;3.712;2023-06-22T03:01:36;16.20;;;15.20;;
23370;SDS011;11858;51.056;3.712;2023-06-22T03:04:05;16.00;;;15.00;;
23370;SDS011;11858;51.056;3.712;2023-06-22T03:06:32;16.00;;;15.05;;
23370;SDS011;11858;51.056;3.712;2023-06-22T03:09:04;16.27;;;15.27;;
23370;SDS011;11858;51.056;3.712;2023-06-22T03:11:30;15.50;;;14.60;;
23370;SDS011;11858;51.056;3.712;2023-06-22T03:13:57;16.10;;;15.10;;
23370;SDS011;11858;51.056;3.712;2023-06-22T03:16:22;15.18;;;14.27;;
23370;SDS011;11858;51.056;3.712;2023-06-22T03:18:48;14.95;;;14.05;;
23370;SDS011;11858;51.056;3.712;2023-06-22T03:21:14;14.73;;;13.82;;
23370;SDS011;11858;51.056;3.712;2023-06-22T03:23:40;15.00;;;14.10;;
23370;SDS011;11858;51.056;3.712;2023-06-22T03:26:06;15.18;;;14.27;;
23370;SDS011;11858;51.056;3.712;2023-06-22T03:28:33;14.10;;;13.30;;
23370;SDS011;11858;51.056;3.712;2023-06-22T03:30:59;14.07;;;13.27;;
23370;SDS011;11858;51.056;3.712;2023-06-22T03:33:24;13.98;;;13.18;;
23370;SDS011;11858;51.056;3.712;2023-06-22T03:35:50;13.57;;;12.77;;
23370;SDS011;11858;51.056;3.712;2023-06-22T03:38:16;13.30;;;12.50;;
23370;SDS011;11858;51.056;3.712;2023-06-22T03:40:42;12.75;;;12.05;;
23370;SDS011;11858;51.056;3.712;2023-06-22T03:43:08;12.48;;;11.77;;
23370;SDS011;11858;51.056;3.712;2023-06-22T03:45:33;13.10;;;12.40;;
23370;SDS011;11858;51.056;3.712;2023-06-22T03:48:00;12.70;;;12.00;;
23370;SDS011;11858;51.056;3.712;2023-06-22T03:50:26;12.57;;;11.88;;
23370;SDS011;11858;51.056;3.712;2023-06-22T03:52:52;11.48;;;10.88;;
23370;SDS011;11858;51.056;3.712;2023-06-22T03:55:19;11.50;;;10.90;;
23370;SDS011;11858;51.056;3.712;2023-06-22T03:57:45;11.40;;;10.80;;
23370;SDS011;11858;51.056;3.712;2023-06-22T04:00:11;11.30;;;10.70;;
23370;SDS011;11858;51.056;3.712;2023-06-22T04:02:37;10.90;;;10.30;;
23370;SDS011;11858;51.056;3.712;2023-06-22T04:05:04;10.57;;;10.00;;
23370;SDS011;11858;51.056;3.712;2023-06-22T04:07:30;10.00;;;9.50;;
23370;SDS011;11858;51.056;3.712;2023-06-22T04:09:55;10.30;;;9.80;;
23370;SDS011;11858;51.056;3.712;2023-06-22T04:12:21;9.63;;;9.13;;
23370;SDS011;11858;51.056;3.712;2023-06-22T04:14:46;9.95;;;9.45;;
23370;SDS011;11858;51.056;3.712;2023-06-22T04:17:12;9.70;;;9.20;;
23370;SDS011;11858;51.056;3.712;2023-06-22T04:19:39;9.40;;;8.90;;
23370;SDS011;11858;51.056;3.712;2023-06-22T04:22:05;8.80;;;8.40;;
23370;SDS011;11858;51.056;3.712;2023-06-22T04:24:32;7.97;;;7.57;;
23370;SDS011;11858;51.056;3.712;2023-06-22T04:26:58;8.18;;;7.78;;
23370;SDS011;11858;51.056;3.712;2023-06-22T04:29:29;8.38;;;7.97;;
23370;SDS011;11858;51.056;3.712;2023-06-22T04:31:58;9.15;;;8.65;;
23370;SDS011;11858;51.056;3.712;2023-06-22T04:34:28;9.20;;;8.70;;
23370;SDS011;11858;51.056;3.712;2023-06-22T04:36:53;9.15;;;8.65;;
23370;SDS011;11858;51.056;3.712;2023-06-22T04:39:19;8.63;;;8.23;;
23370;SDS011;11858;51.056;3.712;2023-06-22T04:41:45;8.70;;;8.30;;
23370;SDS011;11858;51.056;3.712;2023-06-22T04:44:11;8.55;;;8.15;;
23370;SDS011;11858;51.056;3.712;2023-06-22T04:46:37;8.93;;;8.45;;
23370;SDS011;11858;51.056;3.712;2023-06-22T04:49:04;8.60;;;8.20;;
23370;SDS011;11858;51.056;3.712;2023-06-22T04:54:04;8.02;;;7.63;;
23370;SDS011;11858;51.056;3.712;2023-06-22T04:56:30;7.60;;;7.20;;
23370;SDS011;11858;51.056;3.712;2023-06-22T04:58:56;7.40;;;7.00;;
23370;SDS011;11858;51.056;3.712;2023-06-22T05:01:22;7.40;;;7.00;;
23370;SDS011;11858;51.056;3.712;2023-06-22T05:03:48;7.82;;;7.43;;
23370;SDS011;11858;51.056;3.712;2023-06-22T05:06:14;8.48;;;8.07;;
23370;SDS011;11858;51.056;3.712;2023-06-22T05:08:40;8.15;;;7.75;;
23370;SDS011;11858;51.056;3.712;2023-06-22T05:11:06;7.90;;;7.50;;
23370;SDS011;11858;51.056;3.712;2023-06-22T05:13:32;8.27;;;7.88;;
23370;SDS011;11858;51.056;3.712;2023-06-22T05:15:58;8.50;;;8.10;;
23370;SDS011;11858;51.056;3.712;2023-06-22T05:18:35;8.57;;;8.18;;
23370;SDS011;11858;51.056;3.712;2023-06-22T05:21:01;8.73;;;8.32;;
23370;SDS011;11858;51.056;3.712;2023-06-22T05:23:28;9.27;;;8.77;;
23370;SDS011;11858;51.056;3.712;2023-06-22T05:25:53;9.70;;;9.20;;
23370;SDS011;11858;51.056;3.712;2023-06-22T05:28:22;9.82;;;9.32;;
23370;SDS011;11858;51.056;3.712;2023-06-22T05:30:48;10.57;;;10.02;;
23370;SDS011;11858;51.056;3.712;2023-06-22T05:33:13;10.30;;;9.80;;
23370;SDS011;11858;51.056;3.712;2023-06-22T05:35:39;11.25;;;10.65;;
23370;SDS011;11858;51.056;3.712;2023-06-22T05:38:05;11.30;;;10.70;;
23370;SDS011;11858;51.056;3.712;2023-06-22T05:40:30;12.10;;;11.43;;
23370;SDS011;11858;51.056;3.712;2023-06-22T05:42:56;11.90;;;11.30;;
23370;SDS011;11858;51.056;3.712;2023-06-22T05:45:21;11.82;;;11.23;;
23370;SDS011;11858;51.056;3.712;2023-06-22T05:47:47;12.95;;;12.25;;
23370;SDS011;11858;51.056;3.712;2023-06-22T05:50:13;13.10;;;12.40;;
23370;SDS011;11858;51.056;3.712;2023-06-22T05:52:38;12.00;;;11.30;;
23370;SDS011;11858;51.056;3.712;2023-06-22T05:55:04;12.63;;;11.93;;
23370;SDS011;11858;51.056;3.712;2023-06-22T05:57:30;12.95;;;12.25;;
23370;SDS011;11858;51.056;3.712;2023-06-22T05:59:55;14.23;;;13.43;;
23370;SDS011;11858;51.056;3.712;2023-06-22T06:02:21;13.27;;;12.57;;
23370;SDS011;11858;51.056;3.712;2023-06-22T06:04:47;13.93;;;13.13;;
23370;SDS011;11858;51.056;3.712;2023-06-22T06:07:12;13.73;;;12.93;;
23370;SDS011;11858;51.056;3.712;2023-06-22T06:09:38;13.20;;;12.50;;
23370;SDS011;11858;51.056;3.712;2023-06-22T06:12:03;13.70;;;12.90;;
23370;SDS011;11858;51.056;3.712;2023-06-22T06:14:29;13.82;;;13.02;;
23370;SDS011;11858;51.056;3.712;2023-06-22T06:16:55;13.60;;;12.80;;
23370;SDS011;11858;51.056;3.712;2023-06-22T06:19:20;13.10;;;12.40;;
23370;SDS011;11858;51.056;3.712;2023-06-22T06:21:46;13.93;;;13.13;;
23370;SDS011;11858;51.056;3.712;2023-06-22T06:24:12;15.45;;;14.38;;
23370;SDS011;11858;51.056;3.712;2023-06-22T06:26:38;14.40;;;13.60;;
23370;SDS011;11858;51.056;3.712;2023-06-22T06:29:04;15.05;;;14.15;;
23370;SDS011;11858;51.056;3.712;2023-06-22T06:31:29;14.13;;;13.32;;
23370;SDS011;11858;51.056;3.712;2023-06-22T06:33:55;15.35;;;14.45;;
23370;SDS011;11858;51.056;3.712;2023-06-22T06:36:21;15.13;;;14.23;;
23370;SDS011;11858;51.056;3.712;2023-06-22T06:38:46;16.00;;;15.05;;
23370;SDS011;11858;51.056;3.712;2023-06-22T06:41:13;14.63;;;13.82;;
23370;SDS011;11858;51.056;3.712;2023-06-22T06:43:40;14.40;;;13.60;;
23370;SDS011;11858;51.056;3.712;2023-06-22T06:46:07;15.00;;;14.10;;
23370;SDS011;11858;51.056;3.712;2023-06-22T06:48:33;14.50;;;13.70;;
23370;SDS011;11858;51.056;3.712;2023-06-22T06:51:00;14.90;;;14.00;;
23370;SDS011;11858;51.056;3.712;2023-06-22T06:53:25;15.80;;;14.70;;
23370;SDS011;11858;51.056;3.712;2023-06-22T06:55:51;14.35;;;13.55;;
23370;SDS011;11858;51.056;3.712;2023-06-22T06:58:17;14.48;;;13.68;;
23370;SDS011;11858;51.056;3.712;2023-06-22T07:00:43;14.98;;;13.98;;
23370;SDS011;11858;51.056;3.712;2023-06-22T07:03:09;14.45;;;13.18;;
23370;SDS011;11858;51.056;3.712;2023-06-22T07:05:34;14.40;;;13.60;;
23370;SDS011;11858;51.056;3.712;2023-06-22T07:08:00;14.30;;;13.50;;
23370;SDS011;11858;51.056;3.712;2023-06-22T07:10:26;14.25;;;13.45;;
23370;SDS011;11858;51.056;3.712;2023-06-22T07:12:53;14.20;;;13.40;;
23370;SDS011;11858;51.056;3.712;2023-06-22T07:15:18;14.30;;;13.50;;
23370;SDS011;11858;51.056;3.712;2023-06-22T07:17:44;14.68;;;13.80;;
23370;SDS011;11858;51.056;3.712;2023-06-22T07:20:10;13.82;;;13.02;;
23370;SDS011;11858;51.056;3.712;2023-06-22T07:22:39;14.48;;;13.68;;
23370;SDS011;11858;51.056;3.712;2023-06-22T07:25:06;14.15;;;13.35;;
23370;SDS011;11858;51.056;3.712;2023-06-22T07:27:38;13.95;;;13.15;;
23370;SDS011;11858;51.056;3.712;2023-06-22T07:30:08;16.23;;;15.10;;
23370;SDS011;11858;51.056;3.712;2023-06-22T07:32:34;14.82;;;13.95;;
23370;SDS011;11858;51.056;3.712;2023-06-22T07:35:00;14.57;;;13.77;;
23370;SDS011;11858;51.056;3.712;2023-06-22T07:37:26;14.10;;;13.30;;
23370;SDS011;11858;51.056;3.712;2023-06-22T07:39:53;15.05;;;14.20;;
23370;SDS011;11858;51.056;3.712;2023-06-22T07:42:23;14.25;;;13.45;;
23370;SDS011;11858;51.056;3.712;2023-06-22T07:44:49;14.55;;;13.70;;
23370;SDS011;11858;51.056;3.712;2023-06-22T07:47:16;14.93;;;14.02;;
23370;SDS011;11858;51.056;3.712;2023-06-22T07:49:44;18.00;;;16.83;;
23370;SDS011;11858;51.056;3.712;2023-06-22T07:52:10;14.52;;;13.73;;
23370;SDS011;11858;51.056;3.712;2023-06-22T07:54:36;15.30;;;14.40;;
23370;SDS011;11858;51.056;3.712;2023-06-22T07:57:01;14.80;;;13.98;;
23370;SDS011;11858;51.056;3.712;2023-06-22T07:59:27;14.60;;;13.80;;
23370;SDS011;11858;51.056;3.712;2023-06-22T08:01:54;13.63;;;12.90;;
23370;SDS011;11858;51.056;3.712;2023-06-22T08:04:20;14.10;;;13.30;;
23370;SDS011;11858;51.056;3.712;2023-06-22T08:06:45;15.55;;;14.65;;
23370;SDS011;11858;51.056;3.712;2023-06-22T08:09:11;14.32;;;13.52;;
23370;SDS011;11858;51.056;3.712;2023-06-22T08:11:37;13.88;;;13.07;;
23370;SDS011;11858;51.056;3.712;2023-06-22T08:14:02;14.85;;;14.05;;
23370;SDS011;11858;51.056;3.712;2023-06-22T08:16:28;15.15;;;14.35;;
23370;SDS011;11858;51.056;3.712;2023-06-22T08:18:54;14.85;;;14.05;;
23370;SDS011;11858;51.056;3.712;2023-06-22T08:21:20;14.73;;;13.93;;
23370;SDS011;11858;51.056;3.712;2023-06-22T08:23:45;14.27;;;13.48;;
23370;SDS011;11858;51.056;3.712;2023-06-22T08:26:11;15.27;;;13.77;;
23370;SDS011;11858;51.056;3.712;2023-06-22T08:28:36;17.15;;;15.52;;
23370;SDS011;11858;51.056;3.712;2023-06-22T08:31:02;13.88;;;13.07;;
23370;SDS011;11858;51.056;3.712;2023-06-22T08:33:28;17.27;;;15.90;;
23370;SDS011;11858;51.056;3.712;2023-06-22T08:35:55;14.57;;;13.77;;
23370;SDS011;11858;51.056;3.712;2023-06-22T08:38:21;15.32;;;14.43;;
23370;SDS011;11858;51.056;3.712;2023-06-22T08:40:47;14.93;;;14.02;;
23370;SDS011;11858;51.056;3.712;2023-06-22T08:43:13;14.98;;;14.07;;
23370;SDS011;11858;51.056;3.712;2023-06-22T08:45:39;14.55;;;13.75;;
23370;SDS011;11858;51.056;3.712;2023-06-22T08:48:05;14.73;;;13.93;;
23370;SDS011;11858;51.056;3.712;2023-06-22T08:50:30;14.30;;;13.50;;
23370;SDS011;11858;51.056;3.712;2023-06-22T08:52:56;16.48;;;14.77;;
23370;SDS011;11858;51.056;3.712;2023-06-22T08:55:22;16.05;;;14.95;;
23370;SDS011;11858;51.056;3.712;2023-06-22T08:57:47;14.68;;;13.88;;
23370;SDS011;11858;51.056;3.712;2023-06-22T09:00:13;15.13;;;14.20;;
23370;SDS011;11858;51.056;3.712;2023-06-22T09:02:43;18.08;;;16.65;;
23370;SDS011;11858;51.056;3.712;2023-06-22T09:05:10;15.90;;;15.00;;
23370;SDS011;11858;51.056;3.712;2023-06-22T09:07:36;14.60;;;13.80;;
23370;SDS011;11858;51.056;3.712;2023-06-22T09:10:01;14.77;;;13.88;;
23370;SDS011;11858;51.056;3.712;2023-06-22T09:12:29;14.52;;;13.73;;
23370;SDS011;11858;51.056;3.712;2023-06-22T09:14:56;14.50;;;13.70;;
23370;SDS011;11858;51.056;3.712;2023-06-22T09:17:22;14.40;;;13.60;;
23370;SDS011;11858;51.056;3.712;2023-06-22T09:19:47;15.10;;;14.20;;
23370;SDS011;11858;51.056;3.712;2023-06-22T09:22:13;14.80;;;14.00;;
23370;SDS011;11858;51.056;3.712;2023-06-22T09:24:39;15.15;;;14.25;;
23370;SDS011;11858;51.056;3.712;2023-06-22T09:27:05;14.60;;;13.80;;
23370;SDS011;11858;51.056;3.712;2023-06-22T09:29:31;14.80;;;14.00;;
23370;SDS011;11858;51.056;3.712;2023-06-22T09:31:58;14.48;;;13.68;;
23370;SDS011;11858;51.056;3.712;2023-06-22T09:34:25;14.60;;;13.60;;
23370;SDS011;11858;51.056;3.712;2023-06-22T09:36:50;15.15;;;14.25;;
23370;SDS011;11858;51.056;3.712;2023-06-22T09:39:17;14.25;;;13.45;;
23370;SDS011;11858;51.056;3.712;2023-06-22T09:41:43;14.07;;;13.27;;
23370;SDS011;11858;51.056;3.712;2023-06-22T09:44:09;14.23;;;13.43;;
23370;SDS011;11858;51.056;3.712;2023-06-22T09:46:34;14.43;;;13.63;;
23370;SDS011;11858;51.056;3.712;2023-06-22T09:49:00;14.70;;;13.85;;
23370;SDS011;11858;51.056;3.712;2023-06-22T09:51:26;14.25;;;13.45;;
23370;SDS011;11858;51.056;3.712;2023-06-22T09:53:51;16.10;;;15.10;;
23370;SDS011;11858;51.056;3.712;2023-06-22T09:56:19;14.00;;;13.20;;
23370;SDS011;11858;51.056;3.712;2023-06-22T09:58:45;14.57;;;13.73;;
23370;SDS011;11858;51.056;3.712;2023-06-22T10:01:11;30.60;;;17.88;;
23370;SDS011;11858;51.056;3.712;2023-06-22T10:03:39;13.80;;;13.00;;
23370;SDS011;11858;51.056;3.712;2023-06-22T10:06:06;13.02;;;12.32;;
23370;SDS011;11858;51.056;3.712;2023-06-22T10:08:32;12.88;;;12.18;;
23370;SDS011;11858;51.056;3.712;2023-06-22T10:10:58;12.60;;;11.90;;
23370;SDS011;11858;51.056;3.712;2023-06-22T10:13:23;12.30;;;11.60;;
23370;SDS011;11858;51.056;3.712;2023-06-22T10:15:49;13.38;;;12.55;;
23370;SDS011;11858;51.056;3.712;2023-06-22T10:18:17;13.82;;;13.02;;
23370;SDS011;11858;51.056;3.712;2023-06-22T10:20:43;13.20;;;12.50;;
23370;SDS011;11858;51.056;3.712;2023-06-22T10:23:12;12.88;;;12.18;;
23370;SDS011;11858;51.056;3.712;2023-06-22T10:25:37;13.25;;;12.45;;
23370;SDS011;11858;51.056;3.712;2023-06-22T10:28:03;12.57;;;11.88;;
23370;SDS011;11858;51.056;3.712;2023-06-22T10:30:29;12.35;;;11.65;;
23370;SDS011;11858;51.056;3.712;2023-06-22T10:32:54;11.20;;;10.60;;
23370;SDS011;11858;51.056;3.712;2023-06-22T10:35:20;11.30;;;10.70;;
23370;SDS011;11858;51.056;3.712;2023-06-22T10:37:46;10.90;;;10.30;;
23370;SDS011;11858;51.056;3.712;2023-06-22T10:40:12;10.45;;;9.85;;
23370;SDS011;11858;51.056;3.712;2023-06-22T10:42:39;9.27;;;8.77;;
23370;SDS011;11858;51.056;3.712;2023-06-22T10:45:04;9.20;;;8.70;;
23370;SDS011;11858;51.056;3.712;2023-06-22T10:47:31;8.43;;;8.02;;
23370;SDS011;11858;51.056;3.712;2023-06-22T10:49:56;8.93;;;8.43;;
23370;SDS011;11858;51.056;3.712;2023-06-22T10:52:22;9.70;;;9.20;;
23370;SDS011;11858;51.056;3.712;2023-06-22T10:54:47;9.00;;;8.50;;
23370;SDS011;11858;51.056;3.712;2023-06-22T10:57:13;8.65;;;8.25;;
23370;SDS011;11858;51.056;3.712;2023-06-22T10:59:39;8.68;;;8.27;;
23370;SDS011;11858;51.056;3.712;2023-06-22T11:02:04;9.80;;;9.30;;
23370;SDS011;11858;51.056;3.712;2023-06-22T11:04:30;12.98;;;12.27;;
23370;SDS011;11858;51.056;3.712;2023-06-22T11:06:56;13.10;;;12.40;;
23370;SDS011;11858;51.056;3.712;2023-06-22T11:09:21;14.10;;;13.30;;
23370;SDS011;11858;51.056;3.712;2023-06-22T11:11:47;13.95;;;13.15;;
23370;SDS011;11858;51.056;3.712;2023-06-22T11:14:14;13.70;;;12.90;;
23370;SDS011;11858;51.056;3.712;2023-06-22T11:16:40;14.10;;;13.20;;
23370;SDS011;11858;51.056;3.712;2023-06-22T11:19:06;13.70;;;12.90;;
23370;SDS011;11858;51.056;3.712;2023-06-22T11:21:32;13.77;;;12.90;;
23370;SDS011;11858;51.056;3.712;2023-06-22T11:23:57;12.60;;;11.70;;
23370;SDS011;11858;51.056;3.712;2023-06-22T11:26:26;12.35;;;11.65;;
23370;SDS011;11858;51.056;3.712;2023-06-22T11:28:52;13.30;;;12.55;;
23370;SDS011;11858;51.056;3.712;2023-06-22T11:31:18;12.98;;;12.27;;
23370;SDS011;11858;51.056;3.712;2023-06-22T11:33:44;13.40;;;12.60;;
23370;SDS011;11858;51.056;3.712;2023-06-22T11:36:11;12.73;;;12.02;;
23370;SDS011;11858;51.056;3.712;2023-06-22T11:38:37;12.98;;;12.27;;
23370;SDS011;11858;51.056;3.712;2023-06-22T11:41:04;12.65;;;11.95;;
23370;SDS011;11858;51.056;3.712;2023-06-22T11:43:31;13.65;;;12.85;;
23370;SDS011;11858;51.056;3.712;2023-06-22T11:45:57;15.45;;;14.45;;
23370;SDS011;11858;51.056;3.712;2023-06-22T11:48:23;13.65;;;12.85;;
23370;SDS011;11858;51.056;3.712;2023-06-22T11:50:49;12.85;;;12.15;;
23370;SDS011;11858;51.056;3.712;2023-06-22T11:53:15;12.18;;;11.48;;
23370;SDS011;11858;51.056;3.712;2023-06-22T11:55:42;13.73;;;12.75;;
23370;SDS011;11858;51.056;3.712;2023-06-22T11:58:08;11.60;;;11.00;;
23370;SDS011;11858;51.056;3.712;2023-06-22T12:00:34;14.48;;;13.60;;
23370;SDS011;11858;51.056;3.712;2023-06-22T12:02:59;12.80;;;12.10;;
23370;SDS011;11858;51.056;3.712;2023-06-22T12:05:25;12.55;;;11.85;;
23370;SDS011;11858;51.056;3.712;2023-06-22T12:07:53;12.38;;;11.68;;
23370;SDS011;11858;51.056;3.712;2023-06-22T12:10:19;11.60;;;11.00;;
23370;SDS011;11858;51.056;3.712;2023-06-22T12:12:45;11.40;;;10.80;;
23370;SDS011;11858;51.056;3.712;2023-06-22T12:15:11;11.27;;;10.68;;
23370;SDS011;11858;51.056;3.712;2023-06-22T12:17:37;12.00;;;11.30;;
23370;SDS011;11858;51.056;3.712;2023-06-22T12:20:03;10.73;;;10.13;;
23370;SDS011;11858;51.056;3.712;2023-06-22T12:22:33;11.02;;;10.43;;
23370;SDS011;11858;51.056;3.712;2023-06-22T12:25:00;11.98;;;11.27;;
23370;SDS011;11858;51.056;3.712;2023-06-22T12:27:26;10.48;;;9.88;;
23370;SDS011;11858;51.056;3.712;2023-06-22T12:29:52;9.77;;;9.27;;
23370;SDS011;11858;51.056;3.712;2023-06-22T12:32:18;10.65;;;10.05;;
23370;SDS011;11858;51.056;3.712;2023-06-22T12:34:44;9.75;;;9.25;;
23370;SDS011;11858;51.056;3.712;2023-06-22T12:37:10;9.70;;;9.20;;
23370;SDS011;11858;51.056;3.712;2023-06-22T12:39:36;11.90;;;11.20;;
23370;SDS011;11858;51.056;3.712;2023-06-22T12:42:01;11.90;;;11.20;;
23370;SDS011;11858;51.056;3.712;2023-06-22T12:44:27;10.07;;;9.57;;
23370;SDS011;11858;51.056;3.712;2023-06-22T12:46:53;11.25;;;10.65;;
23370;SDS011;11858;51.056;3.712;2023-06-22T12:49:19;10.18;;;9.68;;
23370;SDS011;11858;51.056;3.712;2023-06-22T12:51:45;11.60;;;11.00;;
23370;SDS011;11858;51.056;3.712;2023-06-22T12:54:10;10.93;;;10.32;;
23370;SDS011;11858;51.056;3.712;2023-06-22T12:56:39;10.38;;;9.80;;
23370;SDS011;11858;51.056;3.712;2023-06-22T12:59:05;11.60;;;11.00;;
23370;SDS011;11858;51.056;3.712;2023-06-22T13:01:31;11.30;;;10.70;;
23370;SDS011;11858;51.056;3.712;2023-06-22T13:03:57;10.20;;;9.70;;
23370;SDS011;11858;51.056;3.712;2023-06-22T13:06:23;10.90;;;10.30;;
23370;SDS011;11858;51.056;3.712;2023-06-22T13:08:49;9.55;;;9.05;;
23370;SDS011;11858;51.056;3.712;2023-06-22T13:11:14;8.20;;;7.80;;
23370;SDS011;11858;51.056;3.712;2023-06-22T13:13:40;8.70;;;8.30;;
23370;SDS011;11858;51.056;3.712;2023-06-22T13:16:06;8.63;;;8.23;;
23370;SDS011;11858;51.056;3.712;2023-06-22T13:18:32;8.70;;;8.30;;
23370;SDS011;11858;51.056;3.712;2023-06-22T13:21:00;9.60;;;9.10;;
23370;SDS011;11858;51.056;3.712;2023-06-22T13:23:26;11.00;;;10.43;;
23370;SDS011;11858;51.056;3.712;2023-06-22T13:25:52;10.13;;;9.63;;
23370;SDS011;11858;51.056;3.712;2023-06-22T13:28:18;10.90;;;10.30;;
23370;SDS011;11858;51.056;3.712;2023-06-22T13:30:44;11.35;;;10.75;;
23370;SDS011;11858;51.056;3.712;2023-06-22T13:33:12;15.15;;;13.30;;
23370;SDS011;11858;51.056;3.712;2023-06-22T13:35:38;12.40;;;11.70;;
23370;SDS011;11858;51.056;3.712;2023-06-22T13:38:04;12.32;;;11.63;;
23370;SDS011;11858;51.056;3.712;2023-06-22T13:40:29;12.40;;;11.70;;
23370;SDS011;11858;51.056;3.712;2023-06-22T13:42:55;12.68;;;11.98;;
23370;SDS011;11858;51.056;3.712;2023-06-22T13:45:21;14.00;;;13.20;;
23370;SDS011;11858;51.056;3.712;2023-06-22T13:47:47;14.35;;;13.55;;
23370;SDS011;11858;51.056;3.712;2023-06-22T13:50:13;14.23;;;13.43;;
23370;SDS011;11858;51.056;3.712;2023-06-22T13:52:39;15.05;;;14.15;;
23370;SDS011;11858;51.056;3.712;2023-06-22T13:55:05;15.60;;;14.70;;
23370;SDS011;11858;51.056;3.712;2023-06-22T13:57:32;15.60;;;14.70;;
23370;SDS011;11858;51.056;3.712;2023-06-22T13:59:58;16.13;;;15.13;;
23370;SDS011;11858;51.056;3.712;2023-06-22T14:02:25;16.05;;;15.05;;
23370;SDS011;11858;51.056;3.712;2023-06-22T14:04:51;16.85;;;15.75;;
23370;SDS011;11858;51.056;3.712;2023-06-22T14:07:17;18.05;;;16.95;;
23370;SDS011;11858;51.056;3.712;2023-06-22T14:09:44;18.00;;;16.92;;
23370;SDS011;11858;51.056;3.712;2023-06-22T14:12:10;17.92;;;16.58;;
23370;SDS011;11858;51.056;3.712;2023-06-22T14:14:36;17.08;;;16.08;;
23370;SDS011;11858;51.056;3.712;2023-06-22T14:17:02;17.60;;;16.60;;
23370;SDS011;11858;51.056;3.712;2023-06-22T14:19:29;17.73;;;16.70;;
23370;SDS011;11858;51.056;3.712;2023-06-22T14:21:55;17.25;;;16.25;;
23370;SDS011;11858;51.056;3.712;2023-06-22T14:24:21;17.30;;;16.30;;
23370;SDS011;11858;51.056;3.712;2023-06-22T14:26:47;17.45;;;16.45;;
23370;SDS011;11858;51.056;3.712;2023-06-22T14:29:13;17.05;;;16.05;;
23370;SDS011;11858;51.056;3.712;2023-06-22T14:31:39;17.40;;;16.40;;
23370;SDS011;11858;51.056;3.712;2023-06-22T14:34:04;18.60;;;16.90;;